Terminal Aerodrome Forecast
Issued by NWS Jackson, MS

Home | Current Version | Previous Version | Text Only | Print | Product List | Glossary On
Versions: 1 2 3 4 5 6 7 8 9 10 11 12 13 14 15
936
FTUS44 KJAN 302339
TAFJAN
TAF
KJAN 302339Z 3100/3124 VRB03KT P6SM FEW060
     FM311000 VRB03KT 5SM BR FEW009
     FM311400 30005KT P6SM SCT020 BKN030
     FM311900 30004KT P6SM VCTS SCT040CB BKN060=

USA.gov is the U.S. government's official web portal to all federal, state and local government web resources and services.